sensor_id;sensor_type;location;lat;lon;timestamp;temperature;humidity
45807;DHT22;31507;51.494;7.518;2022-12-07T00:03:49;4.10;99.90
45807;DHT22;31507;51.494;7.518;2022-12-07T00:06:16;4.10;99.90
45807;DHT22;31507;51.494;7.518;2022-12-07T00:08:42;4.10;99.90
45807;DHT22;31507;51.494;7.518;2022-12-07T00:11:11;4.10;99.90
45807;DHT22;31507;51.494;7.518;2022-12-07T00:13:38;4.10;99.90
45807;DHT22;31507;51.494;7.518;2022-12-07T00:16:06;4.10;99.90
45807;DHT22;31507;51.494;7.518;2022-12-07T00:18:32;4.10;99.90
45807;DHT22;31507;51.494;7.518;2022-12-07T00:21:05;4.10;99.90
45807;DHT22;31507;51.494;7.518;2022-12-07T00:23:32;4.10;99.90
45807;DHT22;31507;51.494;7.518;2022-12-07T00:26:07;4.10;99.90
45807;DHT22;31507;51.494;7.518;2022-12-07T00:28:33;4.10;99.90
45807;DHT22;31507;51.494;7.518;2022-12-07T00:31:11;4.10;99.90
45807;DHT22;31507;51.494;7.518;2022-12-07T00:33:37;4.10;99.90
45807;DHT22;31507;51.494;7.518;2022-12-07T00:36:06;4.10;99.90
45807;DHT22;31507;51.494;7.518;2022-12-07T00:38:33;4.10;99.90
45807;DHT22;31507;51.494;7.518;2022-12-07T00:41:02;4.10;99.90
45807;DHT22;31507;51.494;7.518;2022-12-07T00:43:28;4.10;99.90
45807;DHT22;31507;51.494;7.518;2022-12-07T00:45:54;4.10;99.90
45807;DHT22;31507;51.494;7.518;2022-12-07T00:48:20;4.10;99.90
45807;DHT22;31507;51.494;7.518;2022-12-07T00:50:46;4.10;99.90
45807;DHT22;31507;51.494;7.518;2022-12-07T00:53:12;4.10;99.90
45807;DHT22;31507;51.494;7.518;2022-12-07T00:55:38;4.20;99.90
45807;DHT22;31507;51.494;7.518;2022-12-07T00:58:04;4.20;99.90
45807;DHT22;31507;51.494;7.518;2022-12-07T01:00:30;4.20;99.90
45807;DHT22;31507;51.494;7.518;2022-12-07T01:02:55;4.20;99.90
45807;DHT22;31507;51.494;7.518;2022-12-07T01:05:21;4.20;99.90
45807;DHT22;31507;51.494;7.518;2022-12-07T01:07:47;4.20;99.90
45807;DHT22;31507;51.494;7.518;2022-12-07T01:10:14;4.20;99.90
45807;DHT22;31507;51.494;7.518;2022-12-07T01:12:40;4.20;99.90
45807;DHT22;31507;51.494;7.518;2022-12-07T01:15:06;4.20;99.90
45807;DHT22;31507;51.494;7.518;2022-12-07T01:17:32;4.20;99.90
45807;DHT22;31507;51.494;7.518;2022-12-07T01:19:58;4.20;99.90
45807;DHT22;31507;51.494;7.518;2022-12-07T01:22:23;4.20;99.90
45807;DHT22;31507;51.494;7.518;2022-12-07T01:24:49;4.20;99.90
45807;DHT22;31507;51.494;7.518;2022-12-07T01:27:15;4.20;99.90
45807;DHT22;31507;51.494;7.518;2022-12-07T01:29:40;4.20;99.90
45807;DHT22;31507;51.494;7.518;2022-12-07T01:32:06;4.20;99.90
45807;DHT22;31507;51.494;7.518;2022-12-07T01:34:32;4.20;99.90
45807;DHT22;31507;51.494;7.518;2022-12-07T01:36:57;4.20;99.90
45807;DHT22;31507;51.494;7.518;2022-12-07T01:39:23;4.20;99.90
45807;DHT22;31507;51.494;7.518;2022-12-07T01:41:49;4.20;99.90
45807;DHT22;31507;51.494;7.518;2022-12-07T01:44:22;4.20;99.90
45807;DHT22;31507;51.494;7.518;2022-12-07T01:46:56;4.20;99.90
45807;DHT22;31507;51.494;7.518;2022-12-07T01:49:39;4.20;99.90
45807;DHT22;31507;51.494;7.518;2022-12-07T01:54:41;4.20;99.90
45807;DHT22;31507;51.494;7.518;2022-12-07T01:57:08;4.20;99.90
45807;DHT22;31507;51.494;7.518;2022-12-07T01:59:34;4.20;99.90
45807;DHT22;31507;51.494;7.518;2022-12-07T02:02:02;4.20;99.90
45807;DHT22;31507;51.494;7.518;2022-12-07T02:04:31;4.20;99.90
45807;DHT22;31507;51.494;7.518;2022-12-07T02:06:57;4.20;99.90
45807;DHT22;31507;51.494;7.518;2022-12-07T02:09:23;4.20;99.90
45807;DHT22;31507;51.494;7.518;2022-12-07T02:11:49;4.20;99.90
45807;DHT22;31507;51.494;7.518;2022-12-07T02:14:15;4.20;99.90
45807;DHT22;31507;51.494;7.518;2022-12-07T02:17:03;4.20;99.90
45807;DHT22;31507;51.494;7.518;2022-12-07T02:19:58;4.20;99.90
45807;DHT22;31507;51.494;7.518;2022-12-07T02:30:31;4.20;99.90
45807;DHT22;31507;51.494;7.518;2022-12-07T02:33:03;4.20;99.90
45807;DHT22;31507;51.494;7.518;2022-12-07T02:35:41;4.20;99.90
45807;DHT22;31507;51.494;7.518;2022-12-07T02:38:17;4.20;99.90
45807;DHT22;31507;51.494;7.518;2022-12-07T02:43:31;4.20;99.90
45807;DHT22;31507;51.494;7.518;2022-12-07T02:46:04;4.20;99.90
45807;DHT22;31507;51.494;7.518;2022-12-07T02:48:33;4.20;99.90
45807;DHT22;31507;51.494;7.518;2022-12-07T02:50:59;4.20;99.90
45807;DHT22;31507;51.494;7.518;2022-12-07T02:53:42;4.20;99.90
45807;DHT22;31507;51.494;7.518;2022-12-07T03:12:34;4.10;99.90
45807;DHT22;31507;51.494;7.518;2022-12-07T03:15:12;4.00;99.90
45807;DHT22;31507;51.494;7.518;2022-12-07T03:17:40;4.00;99.90
45807;DHT22;31507;51.494;7.518;2022-12-07T03:20:09;4.00;99.90
45807;DHT22;31507;51.494;7.518;2022-12-07T03:22:38;4.00;99.90
45807;DHT22;31507;51.494;7.518;2022-12-07T03:25:09;3.90;99.90
45807;DHT22;31507;51.494;7.518;2022-12-07T03:27:38;3.90;99.90
45807;DHT22;31507;51.494;7.518;2022-12-07T03:30:19;3.80;99.90
45807;DHT22;31507;51.494;7.518;2022-12-07T03:33:01;3.80;99.90
45807;DHT22;31507;51.494;7.518;2022-12-07T03:35:30;3.80;99.90
45807;DHT22;31507;51.494;7.518;2022-12-07T03:41:06;3.70;99.90
45807;DHT22;31507;51.494;7.518;2022-12-07T03:43:34;3.70;99.90
45807;DHT22;31507;51.494;7.518;2022-12-07T03:51:37;3.60;99.90
45807;DHT22;31507;51.494;7.518;2022-12-07T03:54:30;3.60;99.90
45807;DHT22;31507;51.494;7.518;2022-12-07T03:56:58;3.50;99.90
45807;DHT22;31507;51.494;7.518;2022-12-07T03:59:24;3.50;99.90
45807;DHT22;31507;51.494;7.518;2022-12-07T04:02:01;3.40;99.90
45807;DHT22;31507;51.494;7.518;2022-12-07T04:04:27;3.40;99.90
45807;DHT22;31507;51.494;7.518;2022-12-07T04:06:53;3.40;99.90
45807;DHT22;31507;51.494;7.518;2022-12-07T04:09:20;3.30;99.90
45807;DHT22;31507;51.494;7.518;2022-12-07T04:11:46;3.30;99.90
45807;DHT22;31507;51.494;7.518;2022-12-07T04:14:12;3.20;99.90
45807;DHT22;31507;51.494;7.518;2022-12-07T04:16:52;3.20;99.90
45807;DHT22;31507;51.494;7.518;2022-12-07T04:19:20;3.20;99.90
45807;DHT22;31507;51.494;7.518;2022-12-07T04:21:46;3.20;99.90
45807;DHT22;31507;51.494;7.518;2022-12-07T04:24:13;3.20;99.90
45807;DHT22;31507;51.494;7.518;2022-12-07T04:26:39;3.20;99.90
45807;DHT22;31507;51.494;7.518;2022-12-07T04:29:05;3.30;99.90
45807;DHT22;31507;51.494;7.518;2022-12-07T04:31:30;3.30;99.90
45807;DHT22;31507;51.494;7.518;2022-12-07T04:33:56;3.30;99.90
45807;DHT22;31507;51.494;7.518;2022-12-07T04:36:22;3.30;99.90
45807;DHT22;31507;51.494;7.518;2022-12-07T04:38:47;3.30;99.90
45807;DHT22;31507;51.494;7.518;2022-12-07T04:41:13;3.30;99.90
45807;DHT22;31507;51.494;7.518;2022-12-07T04:43:39;3.30;99.90
45807;DHT22;31507;51.494;7.518;2022-12-07T04:46:05;3.20;99.90
45807;DHT22;31507;51.494;7.518;2022-12-07T04:48:30;3.20;99.90
45807;DHT22;31507;51.494;7.518;2022-12-07T04:50:56;3.20;99.90
45807;DHT22;31507;51.494;7.518;2022-12-07T04:53:22;3.20;99.90
45807;DHT22;31507;51.494;7.518;2022-12-07T04:55:48;3.20;99.90
45807;DHT22;31507;51.494;7.518;2022-12-07T04:58:14;3.20;99.90
45807;DHT22;31507;51.494;7.518;2022-12-07T05:00:39;3.20;99.90
45807;DHT22;31507;51.494;7.518;2022-12-07T05:03:05;3.20;99.90
45807;DHT22;31507;51.494;7.518;2022-12-07T05:05:31;3.20;99.90
45807;DHT22;31507;51.494;7.518;2022-12-07T05:07:57;3.20;99.90
45807;DHT22;31507;51.494;7.518;2022-12-07T05:10:22;3.20;99.90
45807;DHT22;31507;51.494;7.518;2022-12-07T05:12:48;3.20;99.90
45807;DHT22;31507;51.494;7.518;2022-12-07T05:15:15;3.20;99.90
45807;DHT22;31507;51.494;7.518;2022-12-07T05:17:41;3.20;99.90
45807;DHT22;31507;51.494;7.518;2022-12-07T05:20:07;3.20;99.90
45807;DHT22;31507;51.494;7.518;2022-12-07T05:22:33;3.10;99.90
45807;DHT22;31507;51.494;7.518;2022-12-07T05:24:59;3.20;99.90
45807;DHT22;31507;51.494;7.518;2022-12-07T05:27:25;3.10;99.90
45807;DHT22;31507;51.494;7.518;2022-12-07T05:29:51;3.10;99.90
45807;DHT22;31507;51.494;7.518;2022-12-07T05:32:17;3.10;99.90
45807;DHT22;31507;51.494;7.518;2022-12-07T05:34:42;3.10;99.90
45807;DHT22;31507;51.494;7.518;2022-12-07T05:37:08;3.10;99.90
45807;DHT22;31507;51.494;7.518;2022-12-07T05:39:34;3.10;99.90
45807;DHT22;31507;51.494;7.518;2022-12-07T05:41:59;3.10;99.90
45807;DHT22;31507;51.494;7.518;2022-12-07T05:44:37;3.00;99.90
45807;DHT22;31507;51.494;7.518;2022-12-07T05:47:03;2.90;99.90
45807;DHT22;31507;51.494;7.518;2022-12-07T05:49:29;2.90;99.90
45807;DHT22;31507;51.494;7.518;2022-12-07T05:51:55;2.90;99.90
45807;DHT22;31507;51.494;7.518;2022-12-07T05:54:21;3.00;99.90
45807;DHT22;31507;51.494;7.518;2022-12-07T05:56:46;3.00;99.90
45807;DHT22;31507;51.494;7.518;2022-12-07T05:59:12;3.00;99.90
45807;DHT22;31507;51.494;7.518;2022-12-07T06:01:58;3.00;99.90
45807;DHT22;31507;51.494;7.518;2022-12-07T06:04:26;3.00;99.90
45807;DHT22;31507;51.494;7.518;2022-12-07T06:06:52;3.00;99.90
45807;DHT22;31507;51.494;7.518;2022-12-07T06:09:19;3.10;99.90
45807;DHT22;31507;51.494;7.518;2022-12-07T06:11:45;3.10;99.90
45807;DHT22;31507;51.494;7.518;2022-12-07T06:14:29;3.10;99.90
45807;DHT22;31507;51.494;7.518;2022-12-07T06:16:55;3.10;99.90
45807;DHT22;31507;51.494;7.518;2022-12-07T06:19:21;3.00;99.90
45807;DHT22;31507;51.494;7.518;2022-12-07T06:21:47;3.00;99.90
45807;DHT22;31507;51.494;7.518;2022-12-07T06:24:13;3.00;99.90
45807;DHT22;31507;51.494;7.518;2022-12-07T06:26:40;3.00;99.90
45807;DHT22;31507;51.494;7.518;2022-12-07T06:29:06;3.10;99.90
45807;DHT22;31507;51.494;7.518;2022-12-07T06:31:32;3.10;99.90
45807;DHT22;31507;51.494;7.518;2022-12-07T06:33:59;3.10;99.90
45807;DHT22;31507;51.494;7.518;2022-12-07T06:36:25;3.10;99.90
45807;DHT22;31507;51.494;7.518;2022-12-07T06:38:51;3.10;99.90
45807;DHT22;31507;51.494;7.518;2022-12-07T06:41:16;3.10;99.90
45807;DHT22;31507;51.494;7.518;2022-12-07T06:43:42;3.10;99.90
45807;DHT22;31507;51.494;7.518;2022-12-07T06:46:07;3.10;99.90
45807;DHT22;31507;51.494;7.518;2022-12-07T06:48:33;3.10;99.90
45807;DHT22;31507;51.494;7.518;2022-12-07T06:50:59;3.10;99.90
45807;DHT22;31507;51.494;7.518;2022-12-07T06:53:24;3.10;99.90
45807;DHT22;31507;51.494;7.518;2022-12-07T06:55:50;3.10;99.90
45807;DHT22;31507;51.494;7.518;2022-12-07T06:58:17;3.10;99.90
45807;DHT22;31507;51.494;7.518;2022-12-07T07:00:43;3.10;99.90
45807;DHT22;31507;51.494;7.518;2022-12-07T07:03:09;3.10;99.90
45807;DHT22;31507;51.494;7.518;2022-12-07T07:05:35;3.10;99.90
45807;DHT22;31507;51.494;7.518;2022-12-07T07:08:01;3.10;99.90
45807;DHT22;31507;51.494;7.518;2022-12-07T07:10:28;3.00;99.90
45807;DHT22;31507;51.494;7.518;2022-12-07T07:12:53;2.90;99.90
45807;DHT22;31507;51.494;7.518;2022-12-07T07:15:19;2.80;99.90
45807;DHT22;31507;51.494;7.518;2022-12-07T07:17:45;2.80;99.90
45807;DHT22;31507;51.494;7.518;2022-12-07T07:20:11;2.70;99.90
45807;DHT22;31507;51.494;7.518;2022-12-07T07:22:36;2.80;99.90
45807;DHT22;31507;51.494;7.518;2022-12-07T07:25:02;2.80;99.90
45807;DHT22;31507;51.494;7.518;2022-12-07T07:27:28;2.80;99.90
45807;DHT22;31507;51.494;7.518;2022-12-07T07:29:53;2.80;99.90
45807;DHT22;31507;51.494;7.518;2022-12-07T07:32:19;2.80;99.90
45807;DHT22;31507;51.494;7.518;2022-12-07T07:34:47;2.90;99.90
45807;DHT22;31507;51.494;7.518;2022-12-07T07:37:12;2.90;99.90
45807;DHT22;31507;51.494;7.518;2022-12-07T07:39:38;2.90;99.90
45807;DHT22;31507;51.494;7.518;2022-12-07T07:42:04;2.90;99.90
45807;DHT22;31507;51.494;7.518;2022-12-07T07:44:30;2.80;99.90
45807;DHT22;31507;51.494;7.518;2022-12-07T07:46:55;2.80;99.90
45807;DHT22;31507;51.494;7.518;2022-12-07T07:49:21;2.80;99.90
45807;DHT22;31507;51.494;7.518;2022-12-07T07:51:47;2.80;99.90
45807;DHT22;31507;51.494;7.518;2022-12-07T07:54:12;2.80;99.90
45807;DHT22;31507;51.494;7.518;2022-12-07T07:56:38;2.70;99.90
45807;DHT22;31507;51.494;7.518;2022-12-07T07:59:03;2.80;99.90
45807;DHT22;31507;51.494;7.518;2022-12-07T08:01:29;2.70;99.90
45807;DHT22;31507;51.494;7.518;2022-12-07T08:03:54;2.70;99.90
45807;DHT22;31507;51.494;7.518;2022-12-07T08:06:20;2.70;99.90
45807;DHT22;31507;51.494;7.518;2022-12-07T08:08:46;2.80;99.90
45807;DHT22;31507;51.494;7.518;2022-12-07T08:11:11;2.80;99.90
45807;DHT22;31507;51.494;7.518;2022-12-07T08:13:37;2.80;99.90
45807;DHT22;31507;51.494;7.518;2022-12-07T08:16:08;2.90;99.90
45807;DHT22;31507;51.494;7.518;2022-12-07T08:18:38;2.90;99.90
45807;DHT22;31507;51.494;7.518;2022-12-07T08:21:05;2.90;99.90
45807;DHT22;31507;51.494;7.518;2022-12-07T08:23:31;3.00;99.90
45807;DHT22;31507;51.494;7.518;2022-12-07T08:26:01;3.10;99.90
45807;DHT22;31507;51.494;7.518;2022-12-07T08:28:27;3.10;99.90
45807;DHT22;31507;51.494;7.518;2022-12-07T08:30:59;3.10;99.90
45807;DHT22;31507;51.494;7.518;2022-12-07T08:33:24;3.20;99.90
45807;DHT22;31507;51.494;7.518;2022-12-07T08:35:51;3.30;99.90
45807;DHT22;31507;51.494;7.518;2022-12-07T08:38:17;3.30;99.90
45807;DHT22;31507;51.494;7.518;2022-12-07T08:40:42;3.30;99.90
45807;DHT22;31507;51.494;7.518;2022-12-07T08:43:08;3.40;99.90
45807;DHT22;31507;51.494;7.518;2022-12-07T08:45:33;3.40;99.90
45807;DHT22;31507;51.494;7.518;2022-12-07T08:48:11;3.50;99.90
45807;DHT22;31507;51.494;7.518;2022-12-07T08:50:38;3.70;99.90
45807;DHT22;31507;51.494;7.518;2022-12-07T08:53:05;3.90;99.90
45807;DHT22;31507;51.494;7.518;2022-12-07T08:55:33;3.90;99.90
45807;DHT22;31507;51.494;7.518;2022-12-07T08:58:02;4.00;99.90
45807;DHT22;31507;51.494;7.518;2022-12-07T09:00:28;4.00;99.90
45807;DHT22;31507;51.494;7.518;2022-12-07T09:02:54;4.00;99.90
45807;DHT22;31507;51.494;7.518;2022-12-07T09:05:20;4.00;99.90
45807;DHT22;31507;51.494;7.518;2022-12-07T09:07:48;4.00;99.90
45807;DHT22;31507;51.494;7.518;2022-12-07T09:10:14;4.10;99.90
45807;DHT22;31507;51.494;7.518;2022-12-07T09:12:40;4.20;99.90
45807;DHT22;31507;51.494;7.518;2022-12-07T09:15:06;4.30;99.90
45807;DHT22;31507;51.494;7.518;2022-12-07T09:17:33;4.30;99.90
45807;DHT22;31507;51.494;7.518;2022-12-07T09:19:59;4.30;99.90
45807;DHT22;31507;51.494;7.518;2022-12-07T09:22:31;4.20;99.90
45807;DHT22;31507;51.494;7.518;2022-12-07T09:24:58;4.20;99.90
45807;DHT22;31507;51.494;7.518;2022-12-07T09:27:24;4.20;99.90
45807;DHT22;31507;51.494;7.518;2022-12-07T09:29:50;4.20;99.90
45807;DHT22;31507;51.494;7.518;2022-12-07T09:32:15;4.30;99.90
45807;DHT22;31507;51.494;7.518;2022-12-07T09:34:41;4.30;99.90
45807;DHT22;31507;51.494;7.518;2022-12-07T09:37:07;4.40;99.90
45807;DHT22;31507;51.494;7.518;2022-12-07T09:39:32;4.80;99.90
45807;DHT22;31507;51.494;7.518;2022-12-07T09:41:59;4.70;99.90
45807;DHT22;31507;51.494;7.518;2022-12-07T09:44:28;4.50;99.90
45807;DHT22;31507;51.494;7.518;2022-12-07T09:46:54;4.50;99.90
45807;DHT22;31507;51.494;7.518;2022-12-07T09:49:22;4.40;99.90
45807;DHT22;31507;51.494;7.518;2022-12-07T09:54:44;4.50;99.90
45807;DHT22;31507;51.494;7.518;2022-12-07T09:57:11;4.50;99.90
45807;DHT22;31507;51.494;7.518;2022-12-07T09:59:38;4.60;99.90
45807;DHT22;31507;51.494;7.518;2022-12-07T10:04:58;5.20;99.90
45807;DHT22;31507;51.494;7.518;2022-12-07T10:07:24;4.90;99.90
45807;DHT22;31507;51.494;7.518;2022-12-07T10:09:50;4.70;99.90
45807;DHT22;31507;51.494;7.518;2022-12-07T10:12:15;4.60;99.90
45807;DHT22;31507;51.494;7.518;2022-12-07T10:15:00;4.60;99.90
45807;DHT22;31507;51.494;7.518;2022-12-07T10:17:37;5.20;99.90
45807;DHT22;31507;51.494;7.518;2022-12-07T10:20:23;5.40;99.90
45807;DHT22;31507;51.494;7.518;2022-12-07T10:23:02;6.00;99.90
45807;DHT22;31507;51.494;7.518;2022-12-07T10:25:31;6.40;99.90
45807;DHT22;31507;51.494;7.518;2022-12-07T10:28:27;6.10;99.90
45807;DHT22;31507;51.494;7.518;2022-12-07T10:31:12;6.00;99.90
45807;DHT22;31507;51.494;7.518;2022-12-07T10:33:55;5.60;99.90
45807;DHT22;31507;51.494;7.518;2022-12-07T10:39:04;5.20;99.90
45807;DHT22;31507;51.494;7.518;2022-12-07T10:41:34;5.00;99.90
45807;DHT22;31507;51.494;7.518;2022-12-07T10:44:00;4.80;99.90
45807;DHT22;31507;51.494;7.518;2022-12-07T10:49:21;5.00;99.90
45807;DHT22;31507;51.494;7.518;2022-12-07T10:57:51;5.50;99.90
45807;DHT22;31507;51.494;7.518;2022-12-07T11:00:25;5.50;99.90
45807;DHT22;31507;51.494;7.518;2022-12-07T11:03:05;5.70;99.90
45807;DHT22;31507;51.494;7.518;2022-12-07T11:08:44;5.60;99.90
45807;DHT22;31507;51.494;7.518;2022-12-07T11:13:55;5.40;99.90
45807;DHT22;31507;51.494;7.518;2022-12-07T11:19:11;5.00;99.90
45807;DHT22;31507;51.494;7.518;2022-12-07T11:21:56;4.90;99.90
45807;DHT22;31507;51.494;7.518;2022-12-07T11:30:46;5.00;99.90
45807;DHT22;31507;51.494;7.518;2022-12-07T11:33:46;5.00;99.90
45807;DHT22;31507;51.494;7.518;2022-12-07T11:36:32;5.20;99.90
45807;DHT22;31507;51.494;7.518;2022-12-07T11:39:10;5.50;99.90
45807;DHT22;31507;51.494;7.518;2022-12-07T11:41:39;5.50;99.90
45807;DHT22;31507;51.494;7.518;2022-12-07T11:44:13;5.50;99.90
45807;DHT22;31507;51.494;7.518;2022-12-07T11:52:41;5.20;99.90
45807;DHT22;31507;51.494;7.518;2022-12-07T12:03:56;5.10;99.90
45807;DHT22;31507;51.494;7.518;2022-12-07T12:06:23;5.10;99.90
45807;DHT22;31507;51.494;7.518;2022-12-07T12:09:29;5.00;99.90
45807;DHT22;31507;51.494;7.518;2022-12-07T12:15:16;5.00;99.90
45807;DHT22;31507;51.494;7.518;2022-12-07T12:25:27;5.10;99.90
45807;DHT22;31507;51.494;7.518;2022-12-07T12:27:57;5.10;99.90
45807;DHT22;31507;51.494;7.518;2022-12-07T12:30:33;5.20;99.90
45807;DHT22;31507;51.494;7.518;2022-12-07T12:33:19;5.10;99.90
45807;DHT22;31507;51.494;7.518;2022-12-07T12:46:57;5.30;99.90
45807;DHT22;31507;51.494;7.518;2022-12-07T12:51:49;5.30;99.90
45807;DHT22;31507;51.494;7.518;2022-12-07T12:59:31;5.30;99.90
45807;DHT22;31507;51.494;7.518;2022-12-07T13:02:22;5.30;99.90
45807;DHT22;31507;51.494;7.518;2022-12-07T13:15:42;5.20;99.90
45807;DHT22;31507;51.494;7.518;2022-12-07T13:28:35;5.10;99.90
45807;DHT22;31507;51.494;7.518;2022-12-07T13:31:18;5.10;99.90
45807;DHT22;31507;51.494;7.518;2022-12-07T13:33:46;5.10;99.90
45807;DHT22;31507;51.494;7.518;2022-12-07T13:36:33;5.10;99.90
45807;DHT22;31507;51.494;7.518;2022-12-07T13:41:42;5.00;99.90
45807;DHT22;31507;51.494;7.518;2022-12-07T13:44:13;5.00;99.90
45807;DHT22;31507;51.494;7.518;2022-12-07T13:49:27;5.10;99.90
45807;DHT22;31507;51.494;7.518;2022-12-07T13:51:54;5.10;99.90
45807;DHT22;31507;51.494;7.518;2022-12-07T13:54:21;5.00;99.90
45807;DHT22;31507;51.494;7.518;2022-12-07T13:56:50;5.10;99.90
45807;DHT22;31507;51.494;7.518;2022-12-07T14:01:45;5.00;99.90
45807;DHT22;31507;51.494;7.518;2022-12-07T14:06:55;5.00;99.90
45807;DHT22;31507;51.494;7.518;2022-12-07T14:09:23;5.00;99.90
45807;DHT22;31507;51.494;7.518;2022-12-07T14:11:51;5.00;99.90
45807;DHT22;31507;51.494;7.518;2022-12-07T14:14:24;4.90;99.90
45807;DHT22;31507;51.494;7.518;2022-12-07T14:17:23;4.90;99.90
45807;DHT22;31507;51.494;7.518;2022-12-07T14:22:42;4.80;99.90
45807;DHT22;31507;51.494;7.518;2022-12-07T14:25:20;4.80;99.90
45807;DHT22;31507;51.494;7.518;2022-12-07T14:27:52;4.80;99.90
45807;DHT22;31507;51.494;7.518;2022-12-07T14:30:21;4.80;99.90
45807;DHT22;31507;51.494;7.518;2022-12-07T14:32:51;4.80;99.90
45807;DHT22;31507;51.494;7.518;2022-12-07T14:35:18;4.80;99.90
45807;DHT22;31507;51.494;7.518;2022-12-07T14:37:47;4.80;99.90
45807;DHT22;31507;51.494;7.518;2022-12-07T14:40:15;4.70;99.90
45807;DHT22;31507;51.494;7.518;2022-12-07T14:42:42;4.70;99.90
45807;DHT22;31507;51.494;7.518;2022-12-07T14:45:14;4.70;99.90
45807;DHT22;31507;51.494;7.518;2022-12-07T14:47:41;4.60;99.90
45807;DHT22;31507;51.494;7.518;2022-12-07T14:50:07;4.50;99.90
45807;DHT22;31507;51.494;7.518;2022-12-07T14:52:33;4.40;99.90
45807;DHT22;31507;51.494;7.518;2022-12-07T14:54:59;4.30;99.90
45807;DHT22;31507;51.494;7.518;2022-12-07T14:57:24;4.10;99.90
45807;DHT22;31507;51.494;7.518;2022-12-07T14:59:50;4.00;99.90
45807;DHT22;31507;51.494;7.518;2022-12-07T15:02:16;3.90;99.90
45807;DHT22;31507;51.494;7.518;2022-12-07T15:04:41;3.80;99.90
45807;DHT22;31507;51.494;7.518;2022-12-07T15:07:15;3.70;99.90
45807;DHT22;31507;51.494;7.518;2022-12-07T15:09:42;3.60;99.90
45807;DHT22;31507;51.494;7.518;2022-12-07T15:12:07;3.50;99.90
45807;DHT22;31507;51.494;7.518;2022-12-07T15:14:33;3.40;99.90
45807;DHT22;31507;51.494;7.518;2022-12-07T15:16:58;3.40;99.90
45807;DHT22;31507;51.494;7.518;2022-12-07T15:19:24;3.30;99.90
45807;DHT22;31507;51.494;7.518;2022-12-07T15:21:53;3.30;99.90
45807;DHT22;31507;51.494;7.518;2022-12-07T15:24:19;3.20;99.90
45807;DHT22;31507;51.494;7.518;2022-12-07T15:26:45;3.20;99.90
45807;DHT22;31507;51.494;7.518;2022-12-07T15:29:11;3.20;99.90
45807;DHT22;31507;51.494;7.518;2022-12-07T15:31:37;3.20;99.90
45807;DHT22;31507;51.494;7.518;2022-12-07T15:34:03;3.10;99.90
45807;DHT22;31507;51.494;7.518;2022-12-07T15:36:31;3.10;99.90
45807;DHT22;31507;51.494;7.518;2022-12-07T15:38:57;2.90;99.90
45807;DHT22;31507;51.494;7.518;2022-12-07T15:41:23;3.00;99.90
45807;DHT22;31507;51.494;7.518;2022-12-07T15:43:49;3.00;99.90
45807;DHT22;31507;51.494;7.518;2022-12-07T15:46:36;2.90;99.90
45807;DHT22;31507;51.494;7.518;2022-12-07T15:49:03;2.80;99.90
45807;DHT22;31507;51.494;7.518;2022-12-07T15:51:29;2.70;99.90
45807;DHT22;31507;51.494;7.518;2022-12-07T15:53:57;2.70;99.90
45807;DHT22;31507;51.494;7.518;2022-12-07T15:56:23;2.70;99.90
45807;DHT22;31507;51.494;7.518;2022-12-07T15:58:48;2.70;99.90
45807;DHT22;31507;51.494;7.518;2022-12-07T16:01:17;2.70;99.90
45807;DHT22;31507;51.494;7.518;2022-12-07T16:03:43;2.70;99.90
45807;DHT22;31507;51.494;7.518;2022-12-07T16:06:09;2.70;99.90
45807;DHT22;31507;51.494;7.518;2022-12-07T16:08:35;2.70;99.90
45807;DHT22;31507;51.494;7.518;2022-12-07T16:11:05;2.70;99.90
45807;DHT22;31507;51.494;7.518;2022-12-07T16:13:31;2.70;99.90
45807;DHT22;31507;51.494;7.518;2022-12-07T16:15:57;2.70;99.90
45807;DHT22;31507;51.494;7.518;2022-12-07T16:18:22;2.70;99.90
45807;DHT22;31507;51.494;7.518;2022-12-07T16:20:48;2.70;99.90
45807;DHT22;31507;51.494;7.518;2022-12-07T16:23:14;2.70;99.90
45807;DHT22;31507;51.494;7.518;2022-12-07T16:25:40;2.70;99.90
45807;DHT22;31507;51.494;7.518;2022-12-07T16:28:06;2.80;99.90
45807;DHT22;31507;51.494;7.518;2022-12-07T16:30:32;2.80;99.90
45807;DHT22;31507;51.494;7.518;2022-12-07T16:32:57;2.80;99.90
45807;DHT22;31507;51.494;7.518;2022-12-07T16:35:23;2.80;99.90
45807;DHT22;31507;51.494;7.518;2022-12-07T16:37:48;2.80;99.90
45807;DHT22;31507;51.494;7.518;2022-12-07T16:40:14;2.90;99.90
45807;DHT22;31507;51.494;7.518;2022-12-07T16:42:39;2.90;99.90
45807;DHT22;31507;51.494;7.518;2022-12-07T16:45:05;2.90;99.90
45807;DHT22;31507;51.494;7.518;2022-12-07T16:47:31;2.90;99.90
45807;DHT22;31507;51.494;7.518;2022-12-07T16:49:57;3.00;99.90
45807;DHT22;31507;51.494;7.518;2022-12-07T16:52:22;3.00;99.90
45807;DHT22;31507;51.494;7.518;2022-12-07T16:54:49;3.00;99.90
45807;DHT22;31507;51.494;7.518;2022-12-07T16:57:16;3.10;99.90
45807;DHT22;31507;51.494;7.518;2022-12-07T16:59:42;3.10;99.90
45807;DHT22;31507;51.494;7.518;2022-12-07T17:02:11;3.10;99.90
45807;DHT22;31507;51.494;7.518;2022-12-07T17:04:37;3.10;99.90
45807;DHT22;31507;51.494;7.518;2022-12-07T17:07:05;3.20;99.90
45807;DHT22;31507;51.494;7.518;2022-12-07T17:09:31;3.20;99.90
45807;DHT22;31507;51.494;7.518;2022-12-07T17:11:57;3.20;99.90
45807;DHT22;31507;51.494;7.518;2022-12-07T17:14:22;3.20;99.90
45807;DHT22;31507;51.494;7.518;2022-12-07T17:17:07;3.20;99.90
45807;DHT22;31507;51.494;7.518;2022-12-07T17:19:32;3.20;99.90
45807;DHT22;31507;51.494;7.518;2022-12-07T17:21:59;3.20;99.90
45807;DHT22;31507;51.494;7.518;2022-12-07T17:24:24;3.30;99.90
45807;DHT22;31507;51.494;7.518;2022-12-07T17:26:50;3.30;99.90
45807;DHT22;31507;51.494;7.518;2022-12-07T17:29:17;3.30;99.90
45807;DHT22;31507;51.494;7.518;2022-12-07T17:31:44;3.30;99.90
45807;DHT22;31507;51.494;7.518;2022-12-07T17:34:11;3.30;99.90
45807;DHT22;31507;51.494;7.518;2022-12-07T17:36:37;3.40;99.90
45807;DHT22;31507;51.494;7.518;2022-12-07T17:39:10;3.40;99.90
45807;DHT22;31507;51.494;7.518;2022-12-07T17:41:37;3.40;99.90
45807;DHT22;31507;51.494;7.518;2022-12-07T17:44:21;3.40;99.90
45807;DHT22;31507;51.494;7.518;2022-12-07T17:46:50;3.40;99.90
45807;DHT22;31507;51.494;7.518;2022-12-07T17:49:19;3.40;99.90
45807;DHT22;31507;51.494;7.518;2022-12-07T17:51:45;3.40;99.90
45807;DHT22;31507;51.494;7.518;2022-12-07T17:54:29;3.40;99.90
45807;DHT22;31507;51.494;7.518;2022-12-07T17:56:55;3.40;99.90
45807;DHT22;31507;51.494;7.518;2022-12-07T17:59:20;3.40;99.90
45807;DHT22;31507;51.494;7.518;2022-12-07T18:01:46;3.50;99.90
45807;DHT22;31507;51.494;7.518;2022-12-07T18:04:12;3.50;99.90
45807;DHT22;31507;51.494;7.518;2022-12-07T18:06:38;3.50;99.90
45807;DHT22;31507;51.494;7.518;2022-12-07T18:09:04;3.50;99.90
45807;DHT22;31507;51.494;7.518;2022-12-07T18:11:30;3.50;99.90
45807;DHT22;31507;51.494;7.518;2022-12-07T18:13:56;3.50;99.90
45807;DHT22;31507;51.494;7.518;2022-12-07T18:16:25;3.50;99.90
45807;DHT22;31507;51.494;7.518;2022-12-07T18:18:51;3.50;99.90
45807;DHT22;31507;51.494;7.518;2022-12-07T18:21:21;3.50;99.90
45807;DHT22;31507;51.494;7.518;2022-12-07T18:23:48;3.50;99.90
45807;DHT22;31507;51.494;7.518;2022-12-07T18:26:15;3.40;99.90